sensor_id;sensor_type;location;lat;lon;timestamp;temperature;humidity
12971;DHT22;6550;48.650;8.774;2023-08-12T00:00:00;18.40;99.90
12971;DHT22;6550;48.650;8.774;2023-08-12T00:02:35;18.30;99.90
12971;DHT22;6550;48.650;8.774;2023-08-12T00:05:02;18.30;99.90
12971;DHT22;6550;48.650;8.774;2023-08-12T00:07:30;18.40;99.90
12971;DHT22;6550;48.650;8.774;2023-08-12T00:09:57;18.50;99.90
12971;DHT22;6550;48.650;8.774;2023-08-12T00:12:26;18.40;99.90
12971;DHT22;6550;48.650;8.774;2023-08-12T00:14:55;18.40;99.90
12971;DHT22;6550;48.650;8.774;2023-08-12T00:17:23;18.20;99.90
12971;DHT22;6550;48.650;8.774;2023-08-12T00:19:52;18.10;99.90
12971;DHT22;6550;48.650;8.774;2023-08-12T00:22:24;18.20;99.90
12971;DHT22;6550;48.650;8.774;2023-08-12T00:24:51;18.30;99.90
12971;DHT22;6550;48.650;8.774;2023-08-12T00:27:18;18.60;99.90
12971;DHT22;6550;48.650;8.774;2023-08-12T00:29:48;18.40;99.90
12971;DHT22;6550;48.650;8.774;2023-08-12T00:32:14;18.20;99.90
12971;DHT22;6550;48.650;8.774;2023-08-12T00:34:42;18.40;99.90
12971;DHT22;6550;48.650;8.774;2023-08-12T00:37:09;18.20;99.90
12971;DHT22;6550;48.650;8.774;2023-08-12T00:39:36;18.10;99.90
12971;DHT22;6550;48.650;8.774;2023-08-12T00:42:06;17.80;99.90
12971;DHT22;6550;48.650;8.774;2023-08-12T00:44:32;17.80;99.90
12971;DHT22;6550;48.650;8.774;2023-08-12T00:46:59;18.00;99.90
12971;DHT22;6550;48.650;8.774;2023-08-12T00:49:29;18.00;99.90
12971;DHT22;6550;48.650;8.774;2023-08-12T00:51:57;18.00;99.90
12971;DHT22;6550;48.650;8.774;2023-08-12T00:54:25;17.40;99.90
12971;DHT22;6550;48.650;8.774;2023-08-12T00:56:53;17.90;99.90
12971;DHT22;6550;48.650;8.774;2023-08-12T00:59:24;18.50;99.90
12971;DHT22;6550;48.650;8.774;2023-08-12T01:01:53;17.90;99.90
12971;DHT22;6550;48.650;8.774;2023-08-12T01:04:20;17.90;99.90
12971;DHT22;6550;48.650;8.774;2023-08-12T01:06:49;18.00;99.90
12971;DHT22;6550;48.650;8.774;2023-08-12T01:09:18;18.20;99.90
12971;DHT22;6550;48.650;8.774;2023-08-12T01:12:03;18.90;99.90
12971;DHT22;6550;48.650;8.774;2023-08-12T01:15:01;18.50;99.90
12971;DHT22;6550;48.650;8.774;2023-08-12T01:17:29;18.30;99.90
12971;DHT22;6550;48.650;8.774;2023-08-12T01:19:56;18.20;99.90
12971;DHT22;6550;48.650;8.774;2023-08-12T01:22:25;18.60;99.90
12971;DHT22;6550;48.650;8.774;2023-08-12T01:24:54;17.90;99.90
12971;DHT22;6550;48.650;8.774;2023-08-12T01:27:23;18.20;99.90
12971;DHT22;6550;48.650;8.774;2023-08-12T01:29:51;18.30;99.90
12971;DHT22;6550;48.650;8.774;2023-08-12T01:37:31;18.30;99.90
12971;DHT22;6550;48.650;8.774;2023-08-12T01:40:00;18.30;99.90
12971;DHT22;6550;48.650;8.774;2023-08-12T01:42:33;18.50;99.90
12971;DHT22;6550;48.650;8.774;2023-08-12T01:45:00;18.30;99.90
12971;DHT22;6550;48.650;8.774;2023-08-12T01:47:28;18.30;99.90
12971;DHT22;6550;48.650;8.774;2023-08-12T01:49:58;18.70;99.90
12971;DHT22;6550;48.650;8.774;2023-08-12T01:52:25;18.40;99.90
12971;DHT22;6550;48.650;8.774;2023-08-12T01:54:54;18.60;99.90
12971;DHT22;6550;48.650;8.774;2023-08-12T01:57:21;18.50;99.90
12971;DHT22;6550;48.650;8.774;2023-08-12T01:59:51;18.10;99.90
12971;DHT22;6550;48.650;8.774;2023-08-12T02:04:45;18.60;99.90
12971;DHT22;6550;48.650;8.774;2023-08-12T02:07:14;18.70;99.90
12971;DHT22;6550;48.650;8.774;2023-08-12T02:09:41;18.30;99.90
12971;DHT22;6550;48.650;8.774;2023-08-12T02:12:08;18.50;99.90
12971;DHT22;6550;48.650;8.774;2023-08-12T02:14:39;18.30;99.90
12971;DHT22;6550;48.650;8.774;2023-08-12T02:17:09;18.50;99.90
12971;DHT22;6550;48.650;8.774;2023-08-12T02:19:36;18.40;99.90
12971;DHT22;6550;48.650;8.774;2023-08-12T02:22:03;18.40;99.90
12971;DHT22;6550;48.650;8.774;2023-08-12T02:24:30;18.40;99.90
12971;DHT22;6550;48.650;8.774;2023-08-12T02:26:57;18.30;99.90
12971;DHT22;6550;48.650;8.774;2023-08-12T02:29:23;18.40;99.90
12971;DHT22;6550;48.650;8.774;2023-08-12T02:31:55;18.40;99.90
12971;DHT22;6550;48.650;8.774;2023-08-12T02:34:24;18.30;99.90
12971;DHT22;6550;48.650;8.774;2023-08-12T02:36:53;18.40;99.90
12971;DHT22;6550;48.650;8.774;2023-08-12T02:39:25;18.70;99.90
12971;DHT22;6550;48.650;8.774;2023-08-12T02:41:51;18.90;99.90
12971;DHT22;6550;48.650;8.774;2023-08-12T02:44:18;19.00;99.90
12971;DHT22;6550;48.650;8.774;2023-08-12T02:46:45;18.40;99.90
12971;DHT22;6550;48.650;8.774;2023-08-12T02:49:12;18.70;99.90
12971;DHT22;6550;48.650;8.774;2023-08-12T02:51:39;18.80;99.90
12971;DHT22;6550;48.650;8.774;2023-08-12T02:54:08;18.70;99.90
12971;DHT22;6550;48.650;8.774;2023-08-12T02:56:35;18.60;99.90
12971;DHT22;6550;48.650;8.774;2023-08-12T02:59:02;18.60;99.90
12971;DHT22;6550;48.650;8.774;2023-08-12T03:01:29;18.60;99.90
12971;DHT22;6550;48.650;8.774;2023-08-12T03:03:56;18.70;99.90
12971;DHT22;6550;48.650;8.774;2023-08-12T03:06:23;19.10;99.90
12971;DHT22;6550;48.650;8.774;2023-08-12T03:08:50;18.60;99.90
12971;DHT22;6550;48.650;8.774;2023-08-12T03:11:17;18.60;99.90
12971;DHT22;6550;48.650;8.774;2023-08-12T03:13:45;18.70;99.90
12971;DHT22;6550;48.650;8.774;2023-08-12T03:16:17;18.70;99.90
12971;DHT22;6550;48.650;8.774;2023-08-12T03:18:44;18.40;99.90
12971;DHT22;6550;48.650;8.774;2023-08-12T03:21:11;18.40;99.90
12971;DHT22;6550;48.650;8.774;2023-08-12T03:23:40;19.10;99.90
12971;DHT22;6550;48.650;8.774;2023-08-12T03:26:07;18.40;99.90
12971;DHT22;6550;48.650;8.774;2023-08-12T03:28:34;18.60;99.90
12971;DHT22;6550;48.650;8.774;2023-08-12T03:31:04;18.70;99.90
12971;DHT22;6550;48.650;8.774;2023-08-12T03:36:06;19.00;99.90
12971;DHT22;6550;48.650;8.774;2023-08-12T03:41:04;18.90;99.90
12971;DHT22;6550;48.650;8.774;2023-08-12T03:43:31;18.90;99.90
12971;DHT22;6550;48.650;8.774;2023-08-12T03:46:00;19.00;99.90
12971;DHT22;6550;48.650;8.774;2023-08-12T03:48:27;19.00;99.90
12971;DHT22;6550;48.650;8.774;2023-08-12T03:50:56;18.70;99.90
12971;DHT22;6550;48.650;8.774;2023-08-12T03:53:23;18.80;99.90
12971;DHT22;6550;48.650;8.774;2023-08-12T03:55:49;18.50;99.90
12971;DHT22;6550;48.650;8.774;2023-08-12T03:58:16;18.70;99.90
12971;DHT22;6550;48.650;8.774;2023-08-12T04:00:45;19.00;99.90
12971;DHT22;6550;48.650;8.774;2023-08-12T04:03:13;19.10;99.90
12971;DHT22;6550;48.650;8.774;2023-08-12T04:05:52;18.90;99.90
12971;DHT22;6550;48.650;8.774;2023-08-12T04:08:21;18.70;99.90
12971;DHT22;6550;48.650;8.774;2023-08-12T04:10:48;18.60;99.90
12971;DHT22;6550;48.650;8.774;2023-08-12T04:13:15;19.70;99.90
12971;DHT22;6550;48.650;8.774;2023-08-12T04:15:41;18.90;99.90
12971;DHT22;6550;48.650;8.774;2023-08-12T04:18:11;19.10;99.90
12971;DHT22;6550;48.650;8.774;2023-08-12T04:20:40;19.30;99.90
12971;DHT22;6550;48.650;8.774;2023-08-12T04:23:07;19.40;99.90
12971;DHT22;6550;48.650;8.774;2023-08-12T04:25:36;18.90;99.90
12971;DHT22;6550;48.650;8.774;2023-08-12T04:28:05;18.90;99.90
12971;DHT22;6550;48.650;8.774;2023-08-12T04:30:39;18.90;99.90
12971;DHT22;6550;48.650;8.774;2023-08-12T04:33:06;18.60;99.90
12971;DHT22;6550;48.650;8.774;2023-08-12T04:35:33;19.00;99.90
12971;DHT22;6550;48.650;8.774;2023-08-12T04:38:02;19.40;99.90
12971;DHT22;6550;48.650;8.774;2023-08-12T04:40:32;19.30;99.90
12971;DHT22;6550;48.650;8.774;2023-08-12T04:42:59;19.00;99.90
12971;DHT22;6550;48.650;8.774;2023-08-12T04:45:28;19.00;99.90
12971;DHT22;6550;48.650;8.774;2023-08-12T04:47:56;19.00;99.90
12971;DHT22;6550;48.650;8.774;2023-08-12T04:50:29;19.00;99.90
12971;DHT22;6550;48.650;8.774;2023-08-12T04:52:56;18.90;99.90
12971;DHT22;6550;48.650;8.774;2023-08-12T04:55:25;18.80;99.90
12971;DHT22;6550;48.650;8.774;2023-08-12T04:57:54;19.00;99.90
12971;DHT22;6550;48.650;8.774;2023-08-12T05:00:21;19.00;99.90
12971;DHT22;6550;48.650;8.774;2023-08-12T05:02:48;19.00;99.90
12971;DHT22;6550;48.650;8.774;2023-08-12T05:05:15;19.10;99.90
12971;DHT22;6550;48.650;8.774;2023-08-12T05:07:42;19.10;99.90
12971;DHT22;6550;48.650;8.774;2023-08-12T05:10:13;19.20;99.90
12971;DHT22;6550;48.650;8.774;2023-08-12T05:15:08;19.00;99.90
12971;DHT22;6550;48.650;8.774;2023-08-12T05:17:35;19.10;99.90
12971;DHT22;6550;48.650;8.774;2023-08-12T05:20:04;19.10;99.90
12971;DHT22;6550;48.650;8.774;2023-08-12T05:22:32;19.00;99.90
12971;DHT22;6550;48.650;8.774;2023-08-12T05:25:05;19.30;99.90
12971;DHT22;6550;48.650;8.774;2023-08-12T05:27:33;19.30;99.90
12971;DHT22;6550;48.650;8.774;2023-08-12T05:30:00;19.50;99.90
12971;DHT22;6550;48.650;8.774;2023-08-12T05:32:29;19.90;99.90
12971;DHT22;6550;48.650;8.774;2023-08-12T05:34:57;19.50;99.90
12971;DHT22;6550;48.650;8.774;2023-08-12T05:37:24;19.50;99.90
12971;DHT22;6550;48.650;8.774;2023-08-12T05:39:51;19.80;99.90
12971;DHT22;6550;48.650;8.774;2023-08-12T05:42:22;19.70;99.90
12971;DHT22;6550;48.650;8.774;2023-08-12T05:44:49;19.60;99.90
12971;DHT22;6550;48.650;8.774;2023-08-12T05:47:16;19.90;99.90
12971;DHT22;6550;48.650;8.774;2023-08-12T05:49:43;20.20;99.90
12971;DHT22;6550;48.650;8.774;2023-08-12T05:52:10;20.10;99.90
12971;DHT22;6550;48.650;8.774;2023-08-12T05:54:37;20.20;99.90
12971;DHT22;6550;48.650;8.774;2023-08-12T05:57:09;20.40;99.90
12971;DHT22;6550;48.650;8.774;2023-08-12T05:59:38;20.90;99.90
12971;DHT22;6550;48.650;8.774;2023-08-12T06:02:07;21.30;99.90
12971;DHT22;6550;48.650;8.774;2023-08-12T06:04:34;20.80;99.90
12971;DHT22;6550;48.650;8.774;2023-08-12T06:07:03;20.50;99.90
12971;DHT22;6550;48.650;8.774;2023-08-12T06:11:57;20.80;99.90
12971;DHT22;6550;48.650;8.774;2023-08-12T06:14:26;21.20;99.90
12971;DHT22;6550;48.650;8.774;2023-08-12T06:16:52;21.10;99.90
12971;DHT22;6550;48.650;8.774;2023-08-12T06:19:24;21.10;99.90
12971;DHT22;6550;48.650;8.774;2023-08-12T06:21:51;21.00;99.90
12971;DHT22;6550;48.650;8.774;2023-08-12T06:24:23;20.60;99.90
12971;DHT22;6550;48.650;8.774;2023-08-12T06:26:49;20.50;99.90
12971;DHT22;6550;48.650;8.774;2023-08-12T06:29:16;21.40;99.90
12971;DHT22;6550;48.650;8.774;2023-08-12T06:31:45;20.80;99.90
12971;DHT22;6550;48.650;8.774;2023-08-12T06:34:15;21.00;99.90
12971;DHT22;6550;48.650;8.774;2023-08-12T06:36:42;21.20;99.90
12971;DHT22;6550;48.650;8.774;2023-08-12T06:39:08;21.00;99.90
12971;DHT22;6550;48.650;8.774;2023-08-12T06:44:03;21.20;99.90
12971;DHT22;6550;48.650;8.774;2023-08-12T06:46:30;21.20;99.90
12971;DHT22;6550;48.650;8.774;2023-08-12T06:49:00;21.30;99.90
12971;DHT22;6550;48.650;8.774;2023-08-12T06:51:31;21.50;99.90
12971;DHT22;6550;48.650;8.774;2023-08-12T06:53:58;22.30;99.90
12971;DHT22;6550;48.650;8.774;2023-08-12T06:56:25;21.30;99.90
12971;DHT22;6550;48.650;8.774;2023-08-12T06:58:54;21.70;99.90
12971;DHT22;6550;48.650;8.774;2023-08-12T07:01:23;21.70;99.90
12971;DHT22;6550;48.650;8.774;2023-08-12T07:03:52;22.10;99.90
12971;DHT22;6550;48.650;8.774;2023-08-12T07:06:22;22.10;99.90
12971;DHT22;6550;48.650;8.774;2023-08-12T07:08:49;22.30;99.90
12971;DHT22;6550;48.650;8.774;2023-08-12T07:13:43;22.40;99.90
12971;DHT22;6550;48.650;8.774;2023-08-12T07:16:12;22.70;99.90
12971;DHT22;6550;48.650;8.774;2023-08-12T07:18:42;23.10;99.90
12971;DHT22;6550;48.650;8.774;2023-08-12T07:21:11;22.70;99.90
12971;DHT22;6550;48.650;8.774;2023-08-12T07:23:38;23.10;99.90
12971;DHT22;6550;48.650;8.774;2023-08-12T07:26:12;23.10;99.90
12971;DHT22;6550;48.650;8.774;2023-08-12T07:28:39;23.00;99.90
12971;DHT22;6550;48.650;8.774;2023-08-12T07:31:05;23.20;99.90
12971;DHT22;6550;48.650;8.774;2023-08-12T07:33:32;23.40;99.90
12971;DHT22;6550;48.650;8.774;2023-08-12T07:36:02;23.60;99.90
12971;DHT22;6550;48.650;8.774;2023-08-12T07:40:56;24.00;99.90
12971;DHT22;6550;48.650;8.774;2023-08-12T07:43:23;24.30;99.90
12971;DHT22;6550;48.650;8.774;2023-08-12T07:45:53;24.60;99.90
12971;DHT22;6550;48.650;8.774;2023-08-12T07:48:34;24.90;99.90
12971;DHT22;6550;48.650;8.774;2023-08-12T07:51:07;24.60;99.90
12971;DHT22;6550;48.650;8.774;2023-08-12T07:53:34;24.40;99.90
12971;DHT22;6550;48.650;8.774;2023-08-12T07:56:01;24.20;99.90
12971;DHT22;6550;48.650;8.774;2023-08-12T07:58:30;24.00;99.90
12971;DHT22;6550;48.650;8.774;2023-08-12T08:00:57;24.10;99.90
12971;DHT22;6550;48.650;8.774;2023-08-12T08:03:24;24.40;99.90
12971;DHT22;6550;48.650;8.774;2023-08-12T08:05:54;24.50;99.90
12971;DHT22;6550;48.650;8.774;2023-08-12T08:08:23;24.80;99.90
12971;DHT22;6550;48.650;8.774;2023-08-12T08:10:50;24.90;99.90
12971;DHT22;6550;48.650;8.774;2023-08-12T08:13:19;25.00;99.90
12971;DHT22;6550;48.650;8.774;2023-08-12T08:15:48;25.00;99.90
12971;DHT22;6550;48.650;8.774;2023-08-12T08:18:17;25.00;99.90
12971;DHT22;6550;48.650;8.774;2023-08-12T08:20:44;24.90;99.90
12971;DHT22;6550;48.650;8.774;2023-08-12T08:23:12;25.00;99.90
12971;DHT22;6550;48.650;8.774;2023-08-12T08:25:41;25.30;99.90
12971;DHT22;6550;48.650;8.774;2023-08-12T08:28:08;25.60;99.90
12971;DHT22;6550;48.650;8.774;2023-08-12T08:30:37;25.70;99.90
12971;DHT22;6550;48.650;8.774;2023-08-12T08:33:05;26.10;99.90
12971;DHT22;6550;48.650;8.774;2023-08-12T08:35:32;26.30;99.90
12971;DHT22;6550;48.650;8.774;2023-08-12T08:37:59;26.60;99.90
12971;DHT22;6550;48.650;8.774;2023-08-12T08:40:27;26.80;99.90
12971;DHT22;6550;48.650;8.774;2023-08-12T08:42:54;27.00;99.90
12971;DHT22;6550;48.650;8.774;2023-08-12T08:45:24;26.80;99.90
12971;DHT22;6550;48.650;8.774;2023-08-12T08:47:54;26.80;99.90
12971;DHT22;6550;48.650;8.774;2023-08-12T08:50:22;26.80;99.90
12971;DHT22;6550;48.650;8.774;2023-08-12T08:52:52;27.20;99.90
12971;DHT22;6550;48.650;8.774;2023-08-12T08:55:22;27.40;99.70
12971;DHT22;6550;48.650;8.774;2023-08-12T08:57:52;27.20;99.10
12971;DHT22;6550;48.650;8.774;2023-08-12T09:00:27;27.10;99.90
12971;DHT22;6550;48.650;8.774;2023-08-12T09:02:54;26.90;99.40
12971;DHT22;6550;48.650;8.774;2023-08-12T09:05:23;26.80;99.90
12971;DHT22;6550;48.650;8.774;2023-08-12T09:07:52;26.70;99.90
12971;DHT22;6550;48.650;8.774;2023-08-12T09:10:21;26.80;99.90
12971;DHT22;6550;48.650;8.774;2023-08-12T09:12:48;27.00;99.60
12971;DHT22;6550;48.650;8.774;2023-08-12T09:15:16;26.90;99.40
12971;DHT22;6550;48.650;8.774;2023-08-12T09:17:44;26.90;99.80
12971;DHT22;6550;48.650;8.774;2023-08-12T09:20:11;26.90;99.20
12971;DHT22;6550;48.650;8.774;2023-08-12T09:22:40;26.90;99.50
12971;DHT22;6550;48.650;8.774;2023-08-12T09:25:11;26.90;99.10
12971;DHT22;6550;48.650;8.774;2023-08-12T09:27:40;26.90;99.30
12971;DHT22;6550;48.650;8.774;2023-08-12T09:30:10;26.80;99.20
12971;DHT22;6550;48.650;8.774;2023-08-12T09:32:37;26.90;98.50
12971;DHT22;6550;48.650;8.774;2023-08-12T09:35:15;27.00;98.30
12971;DHT22;6550;48.650;8.774;2023-08-12T09:37:42;27.00;97.40
12971;DHT22;6550;48.650;8.774;2023-08-12T09:40:09;26.90;98.10
12971;DHT22;6550;48.650;8.774;2023-08-12T09:42:44;26.90;97.80
12971;DHT22;6550;48.650;8.774;2023-08-12T09:45:13;27.00;98.90
12971;DHT22;6550;48.650;8.774;2023-08-12T09:47:43;27.10;98.70
12971;DHT22;6550;48.650;8.774;2023-08-12T09:50:10;27.20;98.60
12971;DHT22;6550;48.650;8.774;2023-08-12T09:52:37;27.20;98.20
12971;DHT22;6550;48.650;8.774;2023-08-12T09:55:08;27.50;97.40
12971;DHT22;6550;48.650;8.774;2023-08-12T09:57:36;27.50;97.10
12971;DHT22;6550;48.650;8.774;2023-08-12T10:00:12;27.60;97.50
12971;DHT22;6550;48.650;8.774;2023-08-12T10:02:44;27.60;96.00
12971;DHT22;6550;48.650;8.774;2023-08-12T10:05:32;27.80;95.70
12971;DHT22;6550;48.650;8.774;2023-08-12T10:07:59;28.20;95.10
12971;DHT22;6550;48.650;8.774;2023-08-12T10:10:29;28.40;93.90
12971;DHT22;6550;48.650;8.774;2023-08-12T10:12:59;28.20;92.80
12971;DHT22;6550;48.650;8.774;2023-08-12T10:15:26;28.10;93.10
12971;DHT22;6550;48.650;8.774;2023-08-12T10:17:53;28.00;93.10
12971;DHT22;6550;48.650;8.774;2023-08-12T10:20:25;27.90;92.70
12971;DHT22;6550;48.650;8.774;2023-08-12T10:22:55;27.90;92.70
12971;DHT22;6550;48.650;8.774;2023-08-12T10:25:31;28.20;92.80
12971;DHT22;6550;48.650;8.774;2023-08-12T10:27:58;28.30;92.50
12971;DHT22;6550;48.650;8.774;2023-08-12T10:30:28;28.40;93.20
12971;DHT22;6550;48.650;8.774;2023-08-12T10:32:58;28.70;91.60
12971;DHT22;6550;48.650;8.774;2023-08-12T10:35:45;28.50;91.20
12971;DHT22;6550;48.650;8.774;2023-08-12T10:38:20;28.50;91.40
12971;DHT22;6550;48.650;8.774;2023-08-12T10:40:50;28.40;91.10
12971;DHT22;6550;48.650;8.774;2023-08-12T10:43:17;28.40;91.80
12971;DHT22;6550;48.650;8.774;2023-08-12T10:45:49;28.20;91.30
12971;DHT22;6550;48.650;8.774;2023-08-12T10:48:17;28.20;91.30
12971;DHT22;6550;48.650;8.774;2023-08-12T10:50:48;28.10;91.80
12971;DHT22;6550;48.650;8.774;2023-08-12T10:53:29;28.20;91.30
12971;DHT22;6550;48.650;8.774;2023-08-12T10:56:01;28.40;91.60
12971;DHT22;6550;48.650;8.774;2023-08-12T10:58:36;28.40;91.20
12971;DHT22;6550;48.650;8.774;2023-08-12T11:01:13;28.10;90.90
12971;DHT22;6550;48.650;8.774;2023-08-12T11:03:43;28.00;91.80
12971;DHT22;6550;48.650;8.774;2023-08-12T11:06:11;28.10;92.00
12971;DHT22;6550;48.650;8.774;2023-08-12T11:08:56;28.00;92.20
12971;DHT22;6550;48.650;8.774;2023-08-12T11:11:26;28.00;92.80
12971;DHT22;6550;48.650;8.774;2023-08-12T11:13:56;28.30;92.90
12971;DHT22;6550;48.650;8.774;2023-08-12T11:16:37;28.30;92.70
12971;DHT22;6550;48.650;8.774;2023-08-12T11:19:04;28.30;92.50
12971;DHT22;6550;48.650;8.774;2023-08-12T11:21:35;28.40;92.70
12971;DHT22;6550;48.650;8.774;2023-08-12T11:24:02;28.30;92.80
12971;DHT22;6550;48.650;8.774;2023-08-12T11:26:30;28.10;92.20
12971;DHT22;6550;48.650;8.774;2023-08-12T11:28:59;28.30;92.30
12971;DHT22;6550;48.650;8.774;2023-08-12T11:31:28;28.50;91.80
12971;DHT22;6550;48.650;8.774;2023-08-12T11:33:55;28.50;92.10
12971;DHT22;6550;48.650;8.774;2023-08-12T11:36:24;28.60;91.80
12971;DHT22;6550;48.650;8.774;2023-08-12T11:38:52;28.50;91.00
12971;DHT22;6550;48.650;8.774;2023-08-12T11:41:18;28.40;91.20
12971;DHT22;6550;48.650;8.774;2023-08-12T11:43:48;28.40;90.90
12971;DHT22;6550;48.650;8.774;2023-08-12T11:46:18;28.30;90.90
12971;DHT22;6550;48.650;8.774;2023-08-12T11:48:47;28.10;92.30
12971;DHT22;6550;48.650;8.774;2023-08-12T11:51:17;27.80;94.70
12971;DHT22;6550;48.650;8.774;2023-08-12T11:56:12;22.00;99.90
12971;DHT22;6550;48.650;8.774;2023-08-12T11:58:38;21.60;99.90
12971;DHT22;6550;48.650;8.774;2023-08-12T12:01:18;22.20;99.90
12971;DHT22;6550;48.650;8.774;2023-08-12T12:03:45;21.90;99.90
12971;DHT22;6550;48.650;8.774;2023-08-12T12:06:12;22.10;99.90
12971;DHT22;6550;48.650;8.774;2023-08-12T12:08:39;22.10;99.90
12971;DHT22;6550;48.650;8.774;2023-08-12T12:11:09;22.40;99.90
12971;DHT22;6550;48.650;8.774;2023-08-12T12:13:39;22.50;99.90
12971;DHT22;6550;48.650;8.774;2023-08-12T12:16:10;22.60;99.90
12971;DHT22;6550;48.650;8.774;2023-08-12T12:18:39;22.60;99.90
12971;DHT22;6550;48.650;8.774;2023-08-12T12:21:06;22.90;99.90
12971;DHT22;6550;48.650;8.774;2023-08-12T12:23:33;22.70;99.90
12971;DHT22;6550;48.650;8.774;2023-08-12T12:26:03;22.90;99.90
12971;DHT22;6550;48.650;8.774;2023-08-12T12:28:30;22.80;99.90
12971;DHT22;6550;48.650;8.774;2023-08-12T12:30:58;22.90;99.90
12971;DHT22;6550;48.650;8.774;2023-08-12T12:33:25;23.10;99.90
12971;DHT22;6550;48.650;8.774;2023-08-12T12:35:51;22.90;99.90
12971;DHT22;6550;48.650;8.774;2023-08-12T12:38:25;22.70;99.90
12971;DHT22;6550;48.650;8.774;2023-08-12T12:40:52;23.10;99.90
12971;DHT22;6550;48.650;8.774;2023-08-12T12:43:19;23.30;99.90
12971;DHT22;6550;48.650;8.774;2023-08-12T12:45:46;23.40;99.90
12971;DHT22;6550;48.650;8.774;2023-08-12T12:48:13;23.40;99.90
12971;DHT22;6550;48.650;8.774;2023-08-12T12:50:39;23.70;99.90
12971;DHT22;6550;48.650;8.774;2023-08-12T12:53:06;23.60;99.90
12971;DHT22;6550;48.650;8.774;2023-08-12T12:55:33;23.50;99.90
12971;DHT22;6550;48.650;8.774;2023-08-12T12:58:02;23.60;99.90
12971;DHT22;6550;48.650;8.774;2023-08-12T13:00:29;23.50;99.90
12971;DHT22;6550;48.650;8.774;2023-08-12T13:02:56;23.40;99.90
12971;DHT22;6550;48.650;8.774;2023-08-12T13:05:23;23.60;99.90
12971;DHT22;6550;48.650;8.774;2023-08-12T13:07:52;23.90;99.90
12971;DHT22;6550;48.650;8.774;2023-08-12T13:10:19;24.30;99.90
12971;DHT22;6550;48.650;8.774;2023-08-12T13:12:46;24.40;99.90
12971;DHT22;6550;48.650;8.774;2023-08-12T13:15:15;24.50;99.90
12971;DHT22;6550;48.650;8.774;2023-08-12T13:20:10;25.40;99.90
12971;DHT22;6550;48.650;8.774;2023-08-12T13:22:37;25.70;99.90
12971;DHT22;6550;48.650;8.774;2023-08-12T13:25:04;26.10;99.90
12971;DHT22;6550;48.650;8.774;2023-08-12T13:27:34;26.00;99.90
12971;DHT22;6550;48.650;8.774;2023-08-12T13:30:01;26.20;99.90
12971;DHT22;6550;48.650;8.774;2023-08-12T13:32:28;26.20;99.90
12971;DHT22;6550;48.650;8.774;2023-08-12T13:34:57;26.20;99.90
12971;DHT22;6550;48.650;8.774;2023-08-12T13:37:24;26.30;99.90
12971;DHT22;6550;48.650;8.774;2023-08-12T13:39:53;26.50;99.90
12971;DHT22;6550;48.650;8.774;2023-08-12T13:42:19;26.70;99.90
12971;DHT22;6550;48.650;8.774;2023-08-12T13:47:13;27.30;99.90
12971;DHT22;6550;48.650;8.774;2023-08-12T13:49:40;27.00;99.90
12971;DHT22;6550;48.650;8.774;2023-08-12T13:52:07;27.30;99.90
12971;DHT22;6550;48.650;8.774;2023-08-12T13:54:34;27.00;99.90
12971;DHT22;6550;48.650;8.774;2023-08-12T13:57:03;27.50;99.90
12971;DHT22;6550;48.650;8.774;2023-08-12T13:59:30;27.60;99.90
12971;DHT22;6550;48.650;8.774;2023-08-12T14:04:29;27.60;99.90
12971;DHT22;6550;48.650;8.774;2023-08-12T14:09:23;27.90;99.90
12971;DHT22;6550;48.650;8.774;2023-08-12T14:11:52;28.10;99.90
12971;DHT22;6550;48.650;8.774;2023-08-12T14:14:19;28.20;99.90
12971;DHT22;6550;48.650;8.774;2023-08-12T14:16:46;28.50;99.90
12971;DHT22;6550;48.650;8.774;2023-08-12T14:19:15;28.60;99.90
12971;DHT22;6550;48.650;8.774;2023-08-12T14:21:44;28.20;99.90
12971;DHT22;6550;48.650;8.774;2023-08-12T14:24:11;27.90;99.90
12971;DHT22;6550;48.650;8.774;2023-08-12T14:26:42;28.20;99.90
12971;DHT22;6550;48.650;8.774;2023-08-12T14:29:08;28.10;99.90
12971;DHT22;6550;48.650;8.774;2023-08-12T14:31:35;28.20;99.90
12971;DHT22;6550;48.650;8.774;2023-08-12T14:34:02;28.30;99.90
12971;DHT22;6550;48.650;8.774;2023-08-12T14:38:58;29.10;99.90
12971;DHT22;6550;48.650;8.774;2023-08-12T14:43:57;29.20;99.90
12971;DHT22;6550;48.650;8.774;2023-08-12T14:46:23;28.70;99.90
12971;DHT22;6550;48.650;8.774;2023-08-12T14:48:55;28.30;99.90
12971;DHT22;6550;48.650;8.774;2023-08-12T14:51:23;28.30;99.90
12971;DHT22;6550;48.650;8.774;2023-08-12T14:53:50;28.80;99.90
12971;DHT22;6550;48.650;8.774;2023-08-12T14:56:17;29.10;99.90
12971;DHT22;6550;48.650;8.774;2023-08-12T15:01:11;28.80;99.90
12971;DHT22;6550;48.650;8.774;2023-08-12T15:03:42;28.80;99.90
12971;DHT22;6550;48.650;8.774;2023-08-12T15:06:09;28.70;99.90
12971;DHT22;6550;48.650;8.774;2023-08-12T15:08:38;28.70;99.90
12971;DHT22;6550;48.650;8.774;2023-08-12T15:11:08;28.70;99.90
12971;DHT22;6550;48.650;8.774;2023-08-12T15:13:35;28.40;99.90
12971;DHT22;6550;48.650;8.774;2023-08-12T15:16:02;28.20;99.90
12971;DHT22;6550;48.650;8.774;2023-08-12T15:18:29;27.90;99.90
12971;DHT22;6550;48.650;8.774;2023-08-12T15:20:58;27.80;99.90
12971;DHT22;6550;48.650;8.774;2023-08-12T15:23:27;27.80;99.90
12971;DHT22;6550;48.650;8.774;2023-08-12T15:25:57;27.70;99.90
12971;DHT22;6550;48.650;8.774;2023-08-12T15:28:23;27.40;99.90
12971;DHT22;6550;48.650;8.774;2023-08-12T15:30:51;26.80;99.90
12971;DHT22;6550;48.650;8.774;2023-08-12T15:33:17;26.30;99.90
12971;DHT22;6550;48.650;8.774;2023-08-12T15:35:49;26.10;99.90
12971;DHT22;6550;48.650;8.774;2023-08-12T15:38:18;25.90;99.90
12971;DHT22;6550;48.650;8.774;2023-08-12T15:40:47;25.80;99.90
12971;DHT22;6550;48.650;8.774;2023-08-12T15:43:14;25.60;99.90
12971;DHT22;6550;48.650;8.774;2023-08-12T15:45:45;25.30;99.90
12971;DHT22;6550;48.650;8.774;2023-08-12T15:48:12;25.20;99.90
12971;DHT22;6550;48.650;8.774;2023-08-12T15:50:44;24.70;99.90
12971;DHT22;6550;48.650;8.774;2023-08-12T15:53:11;24.50;99.90
12971;DHT22;6550;48.650;8.774;2023-08-12T15:55:38;24.20;99.90
12971;DHT22;6550;48.650;8.774;2023-08-12T15:58:08;24.30;99.90
12971;DHT22;6550;48.650;8.774;2023-08-12T16:00:37;24.10;99.90
12971;DHT22;6550;48.650;8.774;2023-08-12T16:03:06;24.00;99.90
12971;DHT22;6550;48.650;8.774;2023-08-12T16:05:36;23.70;99.90
12971;DHT22;6550;48.650;8.774;2023-08-12T16:08:03;23.70;99.90
12971;DHT22;6550;48.650;8.774;2023-08-12T16:10:30;23.90;99.90
12971;DHT22;6550;48.650;8.774;2023-08-12T16:12:59;24.00;99.90
12971;DHT22;6550;48.650;8.774;2023-08-12T16:15:32;24.20;99.90
12971;DHT22;6550;48.650;8.774;2023-08-12T16:22:56;23.50;99.90
12971;DHT22;6550;48.650;8.774;2023-08-12T16:25:25;23.50;99.90
12971;DHT22;6550;48.650;8.774;2023-08-12T16:27:51;23.90;99.90
12971;DHT22;6550;48.650;8.774;2023-08-12T16:30:18;23.70;99.90
12971;DHT22;6550;48.650;8.774;2023-08-12T16:32:45;23.40;99.90
12971;DHT22;6550;48.650;8.774;2023-08-12T16:37:42;23.60;99.90
12971;DHT22;6550;48.650;8.774;2023-08-12T16:40:09;23.40;99.90
12971;DHT22;6550;48.650;8.774;2023-08-12T16:42:38;23.40;99.90
12971;DHT22;6550;48.650;8.774;2023-08-12T16:45:06;23.30;99.90